»·PEaware :: DAL485 KSLC-KLAX

DAL485 :: KSLC-KLAX

FLIGHT INFORMATION

Flight Status: Arrived
Operator:
Delta Air Lines
More flights by this operator :: More flights under this callsign
Pilot: John L. (29598)
Aircraft: AIRBUS A320
(A320)
More flights by this aircraft type
Origin: KSLC Salt Lake City Intl
United States
Destination: KLAX Los Angeles Intl
United States
More flights between these airports :: More routes between these airports
Route: +ZIONZ1 EHK LAKRR Q88 HAKMN ANJLL4
File this flight plan on PilotEdge
Remarks:
Altitude:
(Current/Filed)
36,000ft
Speed:
(Current/Filed)
460kts
Departed: 18-Nov-20 06:52 PM
Arrived: 18-Nov-20 08:29 PM
Distance/Time
Traveled:
512nm/1:37
Distance/Time
To Go:
Arrived

Flight Plot

Page will automatically refresh every two minutes.

Flight plan parsing failed; only flown route is shown


Map Options




Map Legend


Flown Route
Filed Route
Departure Airport
Arrival Airport
Navaid (VOR, NDB)
Fix

Horizontal Profiles

Position Reports

Time Latitude Longitude Heading Altitude Ground
Speed
18-Nov-20 18:11 40.788451 -111.985375 72 4236ft 0kts
18-Nov-20 18:12 40.788451 -111.985375 72 4236ft 0kts
18-Nov-20 18:13 40.788451 -111.985375 72 4236ft 0kts
18-Nov-20 18:14 40.788451 -111.985375 72 4236ft 0kts
18-Nov-20 18:15 40.788451 -111.985375 72 4236ft 0kts
18-Nov-20 18:16 40.788451 -111.985375 72 4236ft 0kts
18-Nov-20 18:17 40.788451 -111.985375 72 4236ft 0kts
18-Nov-20 18:18 40.788451 -111.985375 72 4236ft 0kts
18-Nov-20 18:19 40.788451 -111.985375 72 4236ft 0kts
18-Nov-20 18:20 40.788451 -111.985375 72 4236ft 0kts
18-Nov-20 18:22 40.788451 -111.985375 72 4236ft 0kts
18-Nov-20 18:23 40.788451 -111.985375 72 4236ft 0kts
18-Nov-20 18:24 40.788451 -111.985375 72 4236ft 0kts
18-Nov-20 18:25 40.788451 -111.985375 72 4236ft 0kts
18-Nov-20 18:26 40.788451 -111.985375 72 4236ft 0kts
18-Nov-20 18:27 40.788451 -111.985375 72 4236ft 0kts
18-Nov-20 18:28 40.788451 -111.985375 72 4236ft 0kts
18-Nov-20 18:29 40.788451 -111.985375 72 4236ft 0kts
18-Nov-20 18:30 40.788451 -111.985375 72 4236ft 0kts
18-Nov-20 18:31 40.788451 -111.985375 72 4236ft 0kts
18-Nov-20 18:32 40.788451 -111.985375 72 4236ft 0kts
18-Nov-20 18:33 40.788451 -111.985375 72 4236ft 0kts
18-Nov-20 18:34 40.788451 -111.985375 72 4236ft 0kts
18-Nov-20 18:35 40.788451 -111.985375 72 4236ft 0kts
18-Nov-20 18:36 40.788451 -111.985375 72 4236ft 0kts
18-Nov-20 18:37 40.788451 -111.985376 71 4236ft 0kts
18-Nov-20 18:37 40.788301 -111.985760 72 4236ft 0kts
18-Nov-20 18:39 40.787790 -111.986282 0 4236ft 2kts
18-Nov-20 18:39 40.787541 -111.986216 337 4236ft 0kts
18-Nov-20 18:41 40.787541 -111.986216 337 4236ft 0kts
18-Nov-20 18:41 40.787673 -111.986287 338 4236ft 3kts
18-Nov-20 18:43 40.787793 -111.989932 264 4236ft 10kts
18-Nov-20 18:43 40.787684 -111.991642 264 4236ft 0kts
18-Nov-20 18:44 40.787672 -111.991814 264 4236ft 4kts
18-Nov-20 18:46 40.789413 -111.994014 354 4236ft 13kts
18-Nov-20 18:46 40.792983 -111.994428 355 4236ft 14kts
18-Nov-20 18:47 40.797596 -111.994966 355 4236ft 19kts
18-Nov-20 18:48 40.803069 -111.995594 354 4236ft 18kts
18-Nov-20 18:49 40.807749 -111.996456 285 4236ft 10kts
18-Nov-20 18:50 40.807688 -111.998055 266 4236ft 8kts
18-Nov-20 18:51 40.802155 -111.998625 175 4236ft 104kts
18-Nov-20 18:52 40.752852 -111.993653 175 6024ft 213kts
18-Nov-20 18:53 40.685159 -111.973357 165 7815ft 286kts
18-Nov-20 18:54 40.608705 -111.959213 184 10743ft 287kts
18-Nov-20 18:55 40.519669 -111.955089 183 11867ft 349kts
18-Nov-20 18:56 40.420620 -111.949453 183 13990ft 362kts
18-Nov-20 18:57 40.318928 -111.942237 184 15953ft 372kts
18-Nov-20 18:58 40.215618 -111.947093 194 17728ft 372kts
18-Nov-20 18:59 40.112342 -111.963219 194 19497ft 376kts
18-Nov-20 19:00 40.007907 -111.978469 196 21142ft 378kts
18-Nov-20 19:01 39.903435 -111.993717 196 22560ft 381kts
18-Nov-20 19:02 39.797561 -112.009131 197 23963ft 382kts
18-Nov-20 19:03 39.686191 -112.025333 197 25074ft 390kts
18-Nov-20 19:04 39.576519 -112.041221 197 25986ft 398kts
18-Nov-20 19:05 39.465856 -112.057181 197 26873ft 404kts
18-Nov-20 19:06 39.353457 -112.073158 197 27669ft 410kts
18-Nov-20 19:07 39.239062 -112.089367 196 28328ft 416kts
18-Nov-20 19:08 39.126303 -112.113593 209 28997ft 401kts
18-Nov-20 19:09 39.030283 -112.180087 217 29830ft 390kts
18-Nov-20 19:10 38.935740 -112.248879 217 30525ft 391kts
18-Nov-20 19:11 38.841119 -112.317528 217 31285ft 390kts
18-Nov-20 19:12 38.746451 -112.386012 217 31978ft 391kts
18-Nov-20 19:13 38.652044 -112.454094 217 32632ft 390kts
18-Nov-20 19:14 38.557584 -112.522013 217 33220ft 390kts
18-Nov-20 19:15 38.463177 -112.589683 218 33761ft 390kts
18-Nov-20 19:16 38.369407 -112.656698 217 34373ft 387kts
18-Nov-20 19:17 38.275755 -112.723432 217 34922ft 387kts
18-Nov-20 19:18 38.181773 -112.790188 217 35444ft 386kts
18-Nov-20 19:19 38.088112 -112.856532 217 35921ft 386kts
18-Nov-20 19:20 37.994501 -112.922656 217 36165ft 385kts
18-Nov-20 19:21 37.899961 -112.989239 217 36145ft 392kts
18-Nov-20 19:22 37.804544 -113.056207 217 36133ft 391kts
18-Nov-20 19:23 37.710714 -113.124360 218 36137ft 390kts
18-Nov-20 19:24 37.617014 -113.193015 218 36124ft 390kts
18-Nov-20 19:25 37.522947 -113.261614 218 36128ft 391kts
18-Nov-20 19:26 37.428754 -113.330149 218 36140ft 392kts
18-Nov-20 19:27 37.334545 -113.398457 218 36144ft 392kts
18-Nov-20 19:28 37.239964 -113.466846 218 36126ft 393kts
18-Nov-20 19:29 37.145193 -113.535160 218 36108ft 394kts
18-Nov-20 19:30 37.050033 -113.603557 218 36106ft 395kts
18-Nov-20 19:31 36.954643 -113.671942 217 36108ft 397kts
18-Nov-20 19:32 36.858833 -113.740421 217 36123ft 399kts
18-Nov-20 19:33 36.762066 -113.809368 217 36123ft 401kts
18-Nov-20 19:34 36.665238 -113.878155 217 36118ft 401kts
18-Nov-20 19:35 36.568468 -113.946706 217 36132ft 402kts
18-Nov-20 19:36 36.471320 -114.015322 218 36160ft 402kts
18-Nov-20 19:37 36.374186 -114.083733 217 36129ft 402kts
18-Nov-20 19:38 36.277041 -114.151952 217 36115ft 402kts
18-Nov-20 19:39 36.179931 -114.219950 217 36101ft 402kts
18-Nov-20 19:40 36.084684 -114.290910 227 36099ft 392kts
18-Nov-20 19:41 36.011854 -114.388117 234 36107ft 386kts
18-Nov-20 19:42 35.940508 -114.486766 234 36087ft 386kts
18-Nov-20 19:43 35.868751 -114.585724 234 36091ft 388kts
18-Nov-20 19:44 35.796526 -114.685043 233 36105ft 390kts
18-Nov-20 19:45 35.724003 -114.784471 233 36133ft 392kts
18-Nov-20 19:46 35.651092 -114.884162 233 36122ft 392kts
18-Nov-20 19:47 35.578363 -114.983629 233 36103ft 392kts
18-Nov-20 19:48 35.505434 -115.083044 233 36102ft 392kts
18-Nov-20 19:49 35.430672 -115.180760 232 36104ft 393kts
18-Nov-20 19:50 35.355889 -115.278213 232 36116ft 393kts
18-Nov-20 19:51 35.281019 -115.375515 232 36112ft 393kts
18-Nov-20 19:52 35.206022 -115.472736 232 36114ft 393kts
18-Nov-20 19:53 35.131171 -115.569488 231 36111ft 394kts
18-Nov-20 19:54 35.055345 -115.666613 231 36113ft 396kts
18-Nov-20 19:55 34.979146 -115.763875 231 36127ft 398kts
18-Nov-20 19:56 34.902312 -115.861629 230 36129ft 400kts
18-Nov-20 19:57 34.825181 -115.959518 230 36141ft 402kts
18-Nov-20 19:58 34.747849 -116.057602 230 36179ft 402kts
18-Nov-20 19:59 34.670573 -116.156005 230 35838ft 402kts
18-Nov-20 20:00 34.593866 -116.253349 230 34199ft 398kts
18-Nov-20 20:01 34.517112 -116.350532 230 31586ft 401kts
18-Nov-20 20:02 34.439778 -116.448160 230 28803ft 404kts
18-Nov-20 20:03 34.383126 -116.559154 245 26949ft 358kts
18-Nov-20 20:04 34.341007 -116.661042 244 26349ft 328kts
18-Nov-20 20:05 34.301135 -116.759833 245 24905ft 321kts
18-Nov-20 20:06 34.262643 -116.855462 244 23333ft 314kts
18-Nov-20 20:07 34.224849 -116.949026 244 21752ft 307kts
18-Nov-20 20:08 34.194644 -117.044196 251 20178ft 300kts
18-Nov-20 20:09 34.169028 -117.138693 251 18645ft 293kts
18-Nov-20 20:10 34.143710 -117.231002 251 17123ft 287kts
18-Nov-20 20:11 34.118666 -117.321851 251 15619ft 282kts
18-Nov-20 20:12 34.095008 -117.410742 253 14135ft 276kts
18-Nov-20 20:13 34.073244 -117.498028 253 12913ft 264kts
18-Nov-20 20:14 34.053077 -117.577154 253 11942ft 221kts
18-Nov-20 20:15 34.035498 -117.645812 253 10609ft 216kts
18-Nov-20 20:16 34.020248 -117.716683 262 9989ft 224kts
18-Nov-20 20:17 34.012995 -117.791919 262 8903ft 226kts
18-Nov-20 20:18 34.005613 -117.867494 263 7809ft 226kts
18-Nov-20 20:19 33.998246 -117.942567 263 6854ft 220kts
18-Nov-20 20:20 33.991692 -118.012856 265 5905ft 193kts
18-Nov-20 20:22 33.986586 -118.072245 262 5571ft 176kts
18-Nov-20 20:23 33.980207 -118.130109 263 4549ft 173kts
18-Nov-20 20:24 33.974251 -118.187891 263 3617ft 174kts
18-Nov-20 20:25 33.968353 -118.244447 263 2671ft 150kts
18-Nov-20 20:26 33.963398 -118.292310 263 1927ft 143kts
18-Nov-20 20:27 33.958538 -118.339310 262 1151ft 140kts
18-Nov-20 20:28 33.953850 -118.384937 262 435ft 135kts
18-Nov-20 20:29 33.950294 -118.419576 262 124ft 24kts
18-Nov-20 20:30 33.946497 -118.427746 147 112ft 5kts
18-Nov-20 20:31 33.946621 -118.424593 83 117ft 0kts
18-Nov-20 20:32 33.946621 -118.424590 83 117ft 0kts
18-Nov-20 20:33 33.946851 -118.422186 83 120ft 18kts
18-Nov-20 20:34 33.947469 -118.416069 83 124ft 18kts
18-Nov-20 20:35 33.948238 -118.409951 82 126ft 18kts
18-Nov-20 20:36 33.947685 -118.405823 172 125ft 9kts
18-Nov-20 20:37 33.946197 -118.404837 86 122ft 5kts

Navigation Log

Ident Type
Flight plan parsing failed, navigation log unavailable